createdAt,value
2023-04-05T00:02:14.252Z,1.00
2023-04-05T00:04:50.398Z,1.00
2023-04-05T00:07:19.056Z,1.00
2023-04-05T00:09:46.362Z,1.00
2023-04-05T00:12:13.495Z,1.00
2023-04-05T00:14:40.369Z,1.00
2023-04-05T00:17:08.923Z,1.00
2023-04-05T00:19:38.154Z,1.00
2023-04-05T00:22:05.175Z,1.00
2023-04-05T00:24:33.713Z,1.00
2023-04-05T00:27:01.182Z,1.00
2023-04-05T00:29:28.418Z,1.00
2023-04-05T00:31:56.140Z,1.00
2023-04-05T00:34:22.997Z,1.00
2023-04-05T00:36:49.868Z,1.00
2023-04-05T00:39:16.702Z,1.00
2023-04-05T00:41:46.391Z,1.00
2023-04-05T00:44:14.830Z,1.00
2023-04-05T00:46:42.084Z,1.00
2023-04-05T00:49:08.906Z,1.00
2023-04-05T00:51:36.795Z,1.00
2023-04-05T00:54:03.797Z,1.00
2023-04-05T00:56:31.397Z,1.00
2023-04-05T00:58:58.517Z,1.00
2023-04-05T01:01:28.281Z,1.00
2023-04-05T01:04:02.850Z,1.00
2023-04-05T01:06:55.918Z,1.00
2023-04-05T01:09:44.674Z,1.00
2023-04-05T01:12:18.180Z,1.00
2023-04-05T01:14:45.934Z,1.00
2023-04-05T01:17:12.759Z,1.00
2023-04-05T01:19:42.189Z,1.00
2023-04-05T01:22:37.959Z,1.00
2023-04-05T01:25:26.400Z,1.00
2023-04-05T01:27:58.955Z,1.00
2023-04-05T01:30:40.925Z,1.00
2023-04-05T01:33:18.202Z,1.00
2023-04-05T01:35:55.298Z,1.00
2023-04-05T01:38:27.370Z,1.00
2023-04-05T01:40:54.605Z,1.00
2023-04-05T01:43:21.401Z,1.00
2023-04-05T01:45:48.198Z,1.00
2023-04-05T01:48:15.210Z,1.00
2023-04-05T01:50:42.415Z,1.00
2023-04-05T01:53:09.648Z,1.00
2023-04-05T01:55:36.582Z,1.00
2023-04-05T01:58:03.543Z,1.00
2023-04-05T02:00:30.822Z,1.00
2023-04-05T02:02:57.770Z,1.00
2023-04-05T02:05:24.599Z,1.00
2023-04-05T02:07:51.421Z,1.00
2023-04-05T02:10:20.304Z,1.00
2023-04-05T02:12:47.046Z,1.00
2023-04-05T02:15:13.811Z,1.00
2023-04-05T02:17:45.730Z,1.00
2023-04-05T02:20:14.586Z,1.00
2023-04-05T02:22:42.014Z,1.00
2023-04-05T02:25:09.237Z,1.00
2023-04-05T02:27:36.613Z,1.00
2023-04-05T02:30:04.236Z,1.00
2023-04-05T02:32:32.016Z,1.00
2023-04-05T02:34:58.862Z,1.00
2023-04-05T02:37:27.185Z,1.00
2023-04-05T02:39:54.622Z,1.00
2023-04-05T02:42:21.350Z,1.00
2023-04-05T02:44:49.274Z,1.00
2023-04-05T02:47:21.333Z,1.00
2023-04-05T02:49:48.820Z,1.00
2023-04-05T02:52:16.357Z,1.00
2023-04-05T02:54:43.659Z,1.00
2023-04-05T02:57:11.535Z,1.00
2023-04-05T02:59:38.816Z,1.00
2023-04-05T03:02:06.256Z,1.00
2023-04-05T03:04:34.502Z,1.00
2023-04-05T03:07:02.913Z,1.00
2023-04-05T03:09:33.364Z,1.00
2023-04-05T03:12:01.721Z,1.00
2023-04-05T03:14:28.457Z,1.00
2023-04-05T03:16:55.249Z,1.00
2023-04-05T03:19:22.590Z,1.00
2023-04-05T03:21:49.848Z,1.00
2023-04-05T03:24:17.023Z,1.00
2023-04-05T03:26:48.188Z,1.00
2023-04-05T03:29:15.734Z,1.00
2023-04-05T03:31:42.806Z,1.00
2023-04-05T03:34:09.701Z,1.00
2023-04-05T03:36:42.677Z,1.00
2023-04-05T03:39:10.616Z,1.00
2023-04-05T03:41:38.040Z,1.00
2023-04-05T03:44:05.560Z,1.00
2023-04-05T03:46:32.690Z,1.00
2023-04-05T03:49:00.414Z,1.00
2023-04-05T03:51:27.925Z,1.00
2023-04-05T03:53:54.715Z,1.00
2023-04-05T03:56:21.915Z,1.00
2023-04-05T03:58:48.873Z,1.00
2023-04-05T04:01:15.784Z,1.00
2023-04-05T04:03:42.527Z,1.00
2023-04-05T04:06:09.457Z,1.00
2023-04-05T04:08:36.279Z,1.00
2023-04-05T04:11:03.638Z,1.00
2023-04-05T04:13:30.480Z,1.00
2023-04-05T04:15:57.210Z,1.00
2023-04-05T04:18:24.002Z,1.00
2023-04-05T04:20:52.328Z,1.00
2023-04-05T04:23:19.426Z,1.00
2023-04-05T04:25:46.653Z,1.00
2023-04-05T04:28:13.663Z,1.00
2023-04-05T04:30:43.442Z,1.00
2023-04-05T04:33:10.261Z,1.00
2023-04-05T04:35:39.995Z,26.00
2023-04-05T04:38:08.089Z,46.40
2023-04-05T04:40:40.070Z,81.60
2023-04-05T04:43:17.170Z,60.10
2023-04-05T04:45:47.074Z,42.10
2023-04-05T04:48:17.214Z,99.90
2023-04-05T04:50:45.370Z,99.90
2023-04-05T04:53:13.669Z,52.70
2023-04-05T04:55:43.302Z,34.90
2023-04-05T04:58:11.745Z,27.50
2023-04-05T05:00:40.933Z,33.10
2023-04-05T05:03:08.592Z,1.00
2023-04-05T05:05:35.477Z,1.00
2023-04-05T05:08:03.048Z,1.00
2023-04-05T05:10:29.748Z,1.40
2023-04-05T05:12:56.464Z,28.40
2023-04-05T05:15:23.196Z,99.90
2023-04-05T05:17:53.153Z,99.90
2023-04-05T05:20:20.227Z,99.90
2023-04-05T05:22:47.083Z,76.80
2023-04-05T05:25:13.910Z,27.90
2023-04-05T05:27:41.297Z,56.90
2023-04-05T05:30:09.295Z,99.90
2023-04-05T05:32:36.104Z,99.90
2023-04-05T05:35:03.031Z,99.90
2023-04-05T05:37:32.655Z,99.80
2023-04-05T05:39:59.877Z,83.00
2023-04-05T05:42:29.780Z,65.30
2023-04-05T05:44:56.508Z,99.90
2023-04-05T05:47:23.349Z,99.90
2023-04-05T05:49:50.346Z,99.90
2023-04-05T05:52:17.185Z,99.90
2023-04-05T05:54:43.946Z,99.90
2023-04-05T05:57:10.844Z,99.90
2023-04-05T05:59:37.573Z,99.90
2023-04-05T06:02:04.433Z,99.90
2023-04-05T06:04:31.234Z,99.90
2023-04-05T06:06:58.441Z,99.90
2023-04-05T06:09:25.788Z,99.90
2023-04-05T06:11:56.856Z,99.90
2023-04-05T06:14:25.156Z,99.90
2023-04-05T06:16:52.517Z,99.90
2023-04-05T06:19:19.341Z,99.90
2023-04-05T06:21:46.079Z,99.90
2023-04-05T06:24:12.883Z,99.90
2023-04-05T06:26:39.656Z,99.90
2023-04-05T06:29:06.594Z,99.90
2023-04-05T06:31:35.208Z,1.00
2023-04-05T06:34:02.209Z,99.90
2023-04-05T06:36:32.132Z,99.90
2023-04-05T06:38:59.549Z,1.00
2023-04-05T06:41:27.812Z,99.90
2023-04-05T06:43:55.654Z,99.90
2023-04-05T06:46:22.914Z,99.90
2023-04-05T06:48:50.345Z,1.00
2023-04-05T06:51:17.884Z,1.00
2023-04-05T06:53:44.663Z,1.00
2023-04-05T06:56:11.770Z,1.00
2023-04-05T06:58:38.858Z,1.00
2023-04-05T07:01:06.177Z,13.20
2023-04-05T07:03:33.992Z,1.00
2023-04-05T07:06:01.135Z,1.00
2023-04-05T07:08:29.371Z,1.00
2023-04-05T07:10:56.378Z,1.00
2023-04-05T07:13:25.476Z,1.00
2023-04-05T07:15:53.210Z,1.00
2023-04-05T07:18:21.059Z,1.00
2023-04-05T07:20:52.250Z,1.00
2023-04-05T07:23:20.010Z,1.00
2023-04-05T07:25:47.488Z,1.00
2023-04-05T07:28:14.228Z,1.00
2023-04-05T07:30:41.235Z,1.00
2023-04-05T07:33:08.288Z,1.00
2023-04-05T07:35:35.372Z,1.00
2023-04-05T07:38:02.409Z,1.00
2023-04-05T07:40:29.169Z,1.00
2023-04-05T07:42:55.932Z,1.00
2023-04-05T07:45:22.797Z,1.00
2023-04-05T07:47:49.677Z,1.00
2023-04-05T07:50:16.627Z,1.00
2023-04-05T07:52:43.417Z,1.00
2023-04-05T07:55:10.341Z,99.90
2023-04-05T07:57:37.688Z,99.90
2023-04-05T08:00:12.365Z,99.90
2023-04-05T08:02:39.821Z,99.90
2023-04-05T08:05:07.040Z,99.90
2023-04-05T08:07:33.890Z,99.90
2023-04-05T08:10:00.721Z,99.90
2023-04-05T08:12:27.535Z,99.90
2023-04-05T08:14:54.483Z,99.90
2023-04-05T08:17:21.366Z,99.90
2023-04-05T08:19:49.394Z,99.90
2023-04-05T08:22:17.895Z,99.90
2023-04-05T08:24:45.186Z,99.90
2023-04-05T08:27:12.129Z,99.90
2023-04-05T08:29:38.997Z,99.90
2023-04-05T08:32:06.264Z,99.90
2023-04-05T08:34:33.223Z,99.90
2023-04-05T08:37:00.288Z,99.90
2023-04-05T08:39:27.284Z,99.90
2023-04-05T08:42:08.932Z,99.90
2023-04-05T08:44:37.226Z,96.20
2023-04-05T08:47:04.160Z,99.90
2023-04-05T08:49:31.009Z,46.80
2023-04-05T08:52:00.570Z,52.40
2023-04-05T08:54:27.505Z,29.70
2023-04-05T08:56:54.694Z,25.50
2023-04-05T08:59:21.911Z,10.00
2023-04-05T09:01:50.254Z,8.10
2023-04-05T09:04:20.210Z,12.90
2023-04-05T09:06:48.000Z,1.00
2023-04-05T09:09:15.347Z,1.00
2023-04-05T09:11:43.460Z,1.00
2023-04-05T09:14:11.675Z,1.00
2023-04-05T09:16:39.853Z,1.00
2023-04-05T09:19:06.968Z,1.00
2023-04-05T09:22:02.981Z,1.00
2023-04-05T09:24:44.341Z,1.00
2023-04-05T09:27:12.057Z,1.00
2023-04-05T09:29:41.018Z,1.00
2023-04-05T09:32:09.429Z,1.00
2023-04-05T09:34:37.536Z,1.00
2023-04-05T09:37:20.385Z,1.00
2023-04-05T09:39:52.460Z,1.00
2023-04-05T09:42:22.975Z,1.00
2023-04-05T09:45:05.733Z,1.00
2023-04-05T09:47:36.656Z,1.00
2023-04-05T09:50:15.666Z,1.00
2023-04-05T09:52:43.682Z,1.00
2023-04-05T09:55:11.246Z,1.00
2023-04-05T09:57:40.384Z,1.00
2023-04-05T10:00:17.654Z,1.00
2023-04-05T10:02:44.502Z,1.00
2023-04-05T10:05:13.907Z,1.00
2023-04-05T10:07:41.583Z,1.00
2023-04-05T10:10:09.940Z,1.00
2023-04-05T10:12:38.912Z,1.00
2023-04-05T10:15:06.703Z,1.00
2023-04-05T10:17:49.642Z,1.00
2023-04-05T10:20:17.963Z,1.00
2023-04-05T10:22:52.499Z,1.00
2023-04-05T10:25:40.610Z,1.00
2023-04-05T10:28:35.344Z,1.00
2023-04-05T10:31:37.071Z,1.00
2023-04-05T10:34:06.334Z,1.00
2023-04-05T10:36:55.573Z,1.00
2023-04-05T10:39:30.479Z,1.00
2023-04-05T10:42:01.652Z,1.00
2023-04-05T10:44:32.134Z,1.00
2023-04-05T10:46:59.042Z,1.00
2023-04-05T10:49:25.744Z,1.00
2023-04-05T10:51:53.042Z,1.00
2023-04-05T10:54:21.020Z,1.00
2023-04-05T10:56:48.027Z,1.00
2023-04-05T10:59:15.453Z,1.00
2023-04-05T11:01:42.798Z,1.00
2023-04-05T11:04:12.388Z,1.00
2023-04-05T11:06:39.391Z,1.00
2023-04-05T11:09:17.665Z,1.00
2023-04-05T11:11:48.742Z,1.00
2023-04-05T11:14:40.998Z,1.00
2023-04-05T11:17:27.461Z,1.00
2023-04-05T11:20:05.343Z,1.00
2023-04-05T11:22:32.260Z,1.00
2023-04-05T11:25:01.889Z,1.00
2023-04-05T11:27:30.683Z,1.00
2023-04-05T11:29:59.038Z,1.00
2023-04-05T11:32:43.106Z,1.00
2023-04-05T11:35:13.714Z,1.00
2023-04-05T11:38:02.206Z,1.00
2023-04-05T11:40:33.503Z,1.00
2023-04-05T11:43:11.361Z,1.00
2023-04-05T11:45:39.643Z,1.00
2023-04-05T11:48:08.050Z,1.00
2023-04-05T11:50:36.383Z,1.00
2023-04-05T11:53:10.937Z,1.00
2023-04-05T11:55:42.731Z,1.00
2023-04-05T11:58:13.143Z,1.00
2023-04-05T12:00:41.456Z,1.00
2023-04-05T12:03:31.008Z,1.00
2023-04-05T12:05:59.878Z,1.00
2023-04-05T12:08:42.511Z,1.00
2023-04-05T12:11:11.570Z,1.00
2023-04-05T12:13:39.159Z,1.00
2023-04-05T12:16:07.574Z,1.00
2023-04-05T12:18:35.534Z,1.00
2023-04-05T12:21:11.271Z,1.00
2023-04-05T12:23:38.366Z,1.00
2023-04-05T12:26:06.898Z,1.00
2023-04-05T12:28:55.336Z,1.00
2023-04-05T12:31:35.573Z,1.00
2023-04-05T12:34:02.407Z,1.00
2023-04-05T12:36:31.564Z,1.00
2023-04-05T12:38:59.036Z,1.00
2023-04-05T12:41:33.071Z,1.00
2023-04-05T12:44:01.868Z,1.00
2023-04-05T12:46:45.644Z,1.00
2023-04-05T12:49:16.071Z,1.00
2023-04-05T12:51:44.400Z,1.00
2023-04-05T12:54:15.378Z,1.00
2023-04-05T12:56:42.618Z,1.00
2023-04-05T12:59:09.553Z,1.00
2023-04-05T13:01:36.442Z,1.00
2023-04-05T13:04:15.264Z,1.00
2023-04-05T13:06:44.669Z,1.00
2023-04-05T13:09:11.467Z,1.00
2023-04-05T13:11:38.214Z,1.00
2023-04-05T13:14:04.949Z,1.00
2023-04-05T13:16:31.856Z,1.00
2023-04-05T13:18:58.623Z,1.00
2023-04-05T13:21:25.831Z,1.00
2023-04-05T13:23:52.620Z,1.00
2023-04-05T13:26:19.377Z,1.00
2023-04-05T13:28:46.189Z,1.00
2023-04-05T13:31:14.446Z,1.00
2023-04-05T13:33:42.712Z,1.00
2023-04-05T13:36:11.058Z,1.00
2023-04-05T13:38:37.938Z,1.00
2023-04-05T13:41:05.029Z,1.00
2023-04-05T13:43:31.864Z,1.00
2023-04-05T13:45:58.656Z,1.00
2023-04-05T13:48:25.512Z,1.00
2023-04-05T13:50:52.284Z,1.00
2023-04-05T13:53:19.053Z,1.00
2023-04-05T13:55:45.900Z,1.00
2023-04-05T13:58:14.412Z,1.00
2023-04-05T14:00:41.508Z,1.00
2023-04-05T14:03:08.800Z,1.00
2023-04-05T14:05:35.817Z,1.00
2023-04-05T14:08:02.709Z,1.00
2023-04-05T14:10:31.685Z,1.00
2023-04-05T14:12:58.480Z,1.00
2023-04-05T14:15:25.723Z,1.00
2023-04-05T14:17:52.610Z,1.00
2023-04-05T14:20:19.451Z,1.00
2023-04-05T14:22:46.230Z,1.00
2023-04-05T14:25:13.028Z,1.00
2023-04-05T14:27:42.421Z,1.00
2023-04-05T14:30:11.360Z,1.00
2023-04-05T14:32:38.572Z,1.00
2023-04-05T14:35:06.306Z,1.00
2023-04-05T14:37:33.089Z,1.00
2023-04-05T14:39:59.867Z,1.00
2023-04-05T14:42:37.254Z,1.00
2023-04-05T14:45:12.414Z,1.00
2023-04-05T14:47:39.287Z,1.00
2023-04-05T14:50:07.768Z,1.00
2023-04-05T14:52:34.595Z,1.00
2023-04-05T14:55:01.366Z,1.00
2023-04-05T14:57:28.328Z,1.00
2023-04-05T14:59:55.993Z,1.00
2023-04-05T15:02:23.093Z,1.00
2023-04-05T15:04:49.905Z,1.00
2023-04-05T15:07:16.742Z,1.00
2023-04-05T15:09:43.501Z,1.00
2023-04-05T15:12:10.436Z,1.00
2023-04-05T15:14:37.284Z,1.00
2023-04-05T15:17:04.172Z,1.00
2023-04-05T15:19:31.054Z,1.00
2023-04-05T15:21:57.855Z,1.00
2023-04-05T15:24:24.715Z,1.00
2023-04-05T15:26:51.577Z,1.00
2023-04-05T15:29:18.397Z,1.00
2023-04-05T15:31:45.626Z,1.00
2023-04-05T15:34:12.605Z,1.00
2023-04-05T15:36:39.487Z,1.00
2023-04-05T15:39:06.364Z,1.00
2023-04-05T15:41:33.581Z,1.00
2023-04-05T15:44:00.924Z,1.00
2023-04-05T15:46:29.275Z,1.00
2023-04-05T15:48:56.227Z,1.00
2023-04-05T15:51:23.338Z,1.00
2023-04-05T15:53:50.837Z,1.00
2023-04-05T15:56:18.214Z,1.00
2023-04-05T15:58:45.276Z,1.00
2023-04-05T16:01:12.293Z,1.00
2023-04-05T16:03:39.335Z,1.00
2023-04-05T16:06:06.607Z,1.00
2023-04-05T16:08:33.494Z,1.00
2023-04-05T16:11:00.630Z,1.00
2023-04-05T16:13:27.901Z,1.00
2023-04-05T16:15:54.771Z,1.00
2023-04-05T16:18:22.153Z,1.00
2023-04-05T16:20:48.993Z,1.00
2023-04-05T16:23:16.152Z,1.00
2023-04-05T16:25:43.424Z,1.00
2023-04-05T16:28:10.384Z,1.00
2023-04-05T16:30:37.248Z,1.00
2023-04-05T16:33:04.105Z,1.00
2023-04-05T16:35:31.385Z,1.00
2023-04-05T16:38:01.103Z,1.00
2023-04-05T16:40:27.922Z,1.00
2023-04-05T16:42:55.610Z,1.00
2023-04-05T16:45:22.385Z,1.00
2023-04-05T16:47:49.273Z,1.00
2023-04-05T16:50:16.106Z,1.00
2023-04-05T16:52:42.868Z,1.00
2023-04-05T16:55:09.933Z,1.00
2023-04-05T16:57:36.773Z,1.00
2023-04-05T17:00:05.477Z,1.00
2023-04-05T17:02:32.504Z,1.00
2023-04-05T17:04:59.340Z,1.00
2023-04-05T17:07:26.423Z,1.00
2023-04-05T17:09:53.275Z,1.00
2023-04-05T17:12:20.379Z,1.00
2023-04-05T17:14:47.149Z,1.00
2023-04-05T17:17:13.907Z,1.00
2023-04-05T17:19:40.702Z,1.00
2023-04-05T17:22:07.625Z,1.00
2023-04-05T17:24:36.034Z,1.00
2023-04-05T17:27:04.579Z,1.00
2023-04-05T17:29:31.375Z,1.00
2023-04-05T17:31:58.172Z,1.00
2023-04-05T17:34:24.980Z,1.00
2023-04-05T17:36:52.835Z,1.00
2023-04-05T17:39:19.764Z,1.00
2023-04-05T17:41:46.771Z,1.00
2023-04-05T17:44:14.862Z,1.00
2023-04-05T17:46:48.532Z,1.00
2023-04-05T17:49:21.110Z,1.00
2023-04-05T17:51:48.497Z,1.00
2023-04-05T17:54:15.611Z,1.00
2023-04-05T17:56:42.627Z,1.00
2023-04-05T17:59:09.800Z,1.00
2023-04-05T18:01:37.941Z,1.00
2023-04-05T18:04:05.881Z,1.00
2023-04-05T18:06:32.996Z,1.00
2023-04-05T18:09:00.358Z,1.00
2023-04-05T18:11:27.224Z,1.00
2023-04-05T18:13:54.046Z,1.00
2023-04-05T18:16:21.511Z,1.00
2023-04-05T18:18:48.459Z,1.00
2023-04-05T18:21:15.377Z,1.00
2023-04-05T18:23:43.260Z,1.00
2023-04-05T18:26:10.094Z,1.00
2023-04-05T18:28:36.883Z,1.00
2023-04-05T18:31:03.680Z,1.00
2023-04-05T18:33:30.453Z,1.00
2023-04-05T18:35:57.248Z,1.00
2023-04-05T18:38:24.031Z,1.00
2023-04-05T18:40:50.861Z,1.00
2023-04-05T18:43:17.870Z,1.00
2023-04-05T18:45:44.731Z,1.00
2023-04-05T18:48:11.781Z,1.00
2023-04-05T18:50:38.668Z,1.00
2023-04-05T18:53:06.976Z,1.00
2023-04-05T18:55:33.828Z,1.00
2023-04-05T18:58:00.734Z,1.00
2023-04-05T19:00:27.722Z,1.00
2023-04-05T19:02:54.658Z,1.00
2023-04-05T19:05:21.607Z,1.00
2023-04-05T19:07:48.463Z,1.00
2023-04-05T19:10:15.451Z,1.00
2023-04-05T19:12:43.001Z,1.00
2023-04-05T19:15:10.543Z,1.00
2023-04-05T19:17:37.338Z,1.00
2023-04-05T19:20:04.635Z,1.00
2023-04-05T19:22:31.397Z,1.00
2023-04-05T19:24:58.208Z,1.00
2023-04-05T19:27:30.756Z,1.00
2023-04-05T19:29:57.572Z,1.00
2023-04-05T19:32:24.333Z,1.00
2023-04-05T19:34:51.352Z,1.00
2023-04-05T19:37:18.374Z,1.00
2023-04-05T19:39:45.733Z,1.00
2023-04-05T19:42:12.568Z,1.00
2023-04-05T19:44:50.027Z,1.00
2023-04-05T19:47:21.429Z,1.00
2023-04-05T19:49:49.340Z,1.00
2023-04-05T19:52:47.365Z,1.00
2023-04-05T19:55:28.208Z,1.00
2023-04-05T19:57:55.867Z,1.00
2023-04-05T20:00:48.598Z,1.00
2023-04-05T20:03:34.929Z,1.00
2023-04-05T20:06:07.688Z,1.00
2023-04-05T20:08:39.915Z,1.00
2023-04-05T20:11:17.393Z,1.00
2023-04-05T20:13:47.944Z,1.00
2023-04-05T20:16:16.030Z,1.00
2023-04-05T20:18:47.431Z,1.00
2023-04-05T20:21:15.405Z,1.00
2023-04-05T20:23:43.585Z,1.00
2023-04-05T20:26:15.549Z,1.00
2023-04-05T20:28:53.566Z,1.00
2023-04-05T20:31:29.433Z,1.00
2023-04-05T20:33:59.411Z,1.00
2023-04-05T20:36:33.144Z,1.00
2023-04-05T20:39:01.388Z,1.00
2023-04-05T20:41:28.669Z,1.00
2023-04-05T20:43:56.521Z,1.00
2023-04-05T20:46:24.810Z,1.00
2023-04-05T20:48:53.601Z,1.00
2023-04-05T20:51:20.926Z,1.00
2023-04-05T20:53:47.887Z,1.00
2023-04-05T20:56:14.733Z,1.00
2023-04-05T20:58:41.944Z,1.00
2023-04-05T21:01:10.060Z,1.00
2023-04-05T21:03:38.901Z,1.00
2023-04-05T21:06:08.225Z,1.00
2023-04-05T21:08:36.495Z,1.00
2023-04-05T21:11:03.910Z,1.00
2023-04-05T21:13:30.760Z,1.00
2023-04-05T21:15:58.271Z,1.00
2023-04-05T21:18:25.621Z,1.00
2023-04-05T21:20:53.543Z,1.00
2023-04-05T21:23:22.587Z,1.00
2023-04-05T21:25:49.914Z,1.00
2023-04-05T21:28:16.797Z,1.00
2023-04-05T21:30:43.868Z,1.00
2023-04-05T21:33:11.059Z,1.00
2023-04-05T21:35:38.285Z,1.00
2023-04-05T21:38:05.511Z,1.00
2023-04-05T21:40:32.865Z,1.00
2023-04-05T21:42:59.896Z,1.00
2023-04-05T21:45:26.992Z,1.00
2023-04-05T21:47:54.414Z,1.00
2023-04-05T21:50:21.558Z,1.00
2023-04-05T21:52:48.364Z,1.00
2023-04-05T21:55:15.354Z,1.00
2023-04-05T21:57:42.117Z,1.00
2023-04-05T22:00:12.089Z,1.00
2023-04-05T22:02:39.948Z,1.00
2023-04-05T22:05:08.048Z,1.00
2023-04-05T22:07:35.616Z,1.00
2023-04-05T22:10:03.470Z,1.00
2023-04-05T22:12:30.603Z,1.00
2023-04-05T22:14:57.381Z,1.00
2023-04-05T22:17:24.199Z,1.00
2023-04-05T22:19:51.193Z,1.00
2023-04-05T22:22:19.096Z,1.00
2023-04-05T22:24:46.182Z,1.00
2023-04-05T22:27:13.111Z,1.00
2023-04-05T22:29:40.465Z,1.00
2023-04-05T22:32:07.251Z,1.00
2023-04-05T22:34:34.150Z,1.00
2023-04-05T22:37:01.044Z,1.00
2023-04-05T22:39:27.922Z,1.00
2023-04-05T22:41:55.191Z,1.00
2023-04-05T22:44:22.104Z,1.00
2023-04-05T22:46:48.860Z,1.00
2023-04-05T22:49:16.891Z,1.00
2023-04-05T22:51:43.639Z,1.00
2023-04-05T22:54:10.367Z,1.00
2023-04-05T22:56:37.171Z,1.00
2023-04-05T22:59:04.006Z,1.00
2023-04-05T23:01:30.944Z,1.00
2023-04-05T23:03:57.779Z,1.00
2023-04-05T23:06:25.000Z,1.00
2023-04-05T23:08:51.739Z,1.00
2023-04-05T23:11:18.529Z,1.00
2023-04-05T23:13:45.319Z,1.00
2023-04-05T23:16:12.208Z,1.00
2023-04-05T23:18:39.044Z,1.00
2023-04-05T23:21:05.834Z,1.00
2023-04-05T23:23:32.659Z,1.00
2023-04-05T23:25:59.443Z,1.00
2023-04-05T23:28:26.261Z,1.00
2023-04-05T23:30:53.041Z,1.00
2023-04-05T23:33:21.307Z,1.00
2023-04-05T23:35:48.189Z,1.00
2023-04-05T23:38:15.027Z,1.00
2023-04-05T23:40:41.798Z,1.00
2023-04-05T23:43:08.536Z,1.00
2023-04-05T23:45:35.509Z,1.00
2023-04-05T23:48:02.654Z,1.00
2023-04-05T23:50:29.485Z,1.00
2023-04-05T23:52:57.916Z,1.00
2023-04-05T23:55:24.752Z,1.00
2023-04-05T23:57:52.205Z,1.00
